Time;durP1;ratioP1;P1;durP2;ratioP2;P2;SDS_P1;SDS_P2;PMS_P1;PMS_P2;Temp;Humidity;BMP_temperature;BMP_pressure;BME280_temperature;BME280_humidity;BME280_pressure;Samples;Min_cycle;Max_cycle;Signal;HPM_P1;HPM_P2
2024/01/05 00:01:43;;;;;;;2.87;1.63;;;2.20;99.90;1.70;99659.00;;;;4901816;28;121247;-72
2024/01/05 00:04:09;;;;;;;2.03;1.53;;;1.90;99.90;1.70;99662.00;;;;4902499;28;92862;-71
2024/01/05 00:06:37;;;;;;;1.47;1.37;;;2.00;99.90;1.60;99673.00;;;;4902576;28;94052;-70
2024/01/05 00:09:04;;;;;;;2.30;1.43;;;2.00;99.90;1.60;99664.00;;;;4901805;28;93038;-70
2024/01/05 00:11:29;;;;;;;1.00;0.90;;;2.00;99.90;1.60;99658.00;;;;4902551;28;93822;-71
2024/01/05 00:13:55;;;;;;;1.13;1.03;;;1.80;99.90;1.60;99653.00;;;;4903858;28;122618;-71
2024/01/05 00:16:23;;;;;;;1.37;0.97;;;2.00;99.90;1.50;99654.00;;;;4899701;28;110820;-71
2024/01/05 00:18:49;;;;;;;0.90;0.87;;;1.90;99.90;1.50;99654.00;;;;4899975;28;93187;-70
2024/01/05 00:21:26;;;;;;;1.10;1.00;;;1.90;99.90;1.50;99656.00;;;;4899158;28;113603;-71
2024/01/05 00:23:54;;;;;;;0.67;0.67;;;1.90;99.90;1.50;99658.00;;;;4905427;28;104462;-71
2024/01/05 00:26:20;;;;;;;0.83;0.70;;;1.80;99.90;1.50;99646.00;;;;4900332;28;93058;-72
2024/01/05 00:28:48;;;;;;;0.57;0.57;;;1.70;99.90;1.40;99651.00;;;;4904503;28;102045;-72
2024/01/05 00:31:15;;;;;;;1.20;1.10;;;1.80;99.90;1.40;99646.00;;;;4903358;28;98078;-72
2024/01/05 00:33:42;;;;;;;1.70;0.80;;;1.70;99.90;1.40;99643.00;;;;4903245;28;94877;-73
2024/01/05 00:36:09;;;;;;;1.23;0.83;;;1.60;99.90;1.30;99644.00;;;;4917017;28;101751;-73
2024/01/05 00:38:35;;;;;;;0.97;0.80;;;1.70;99.90;1.40;99643.00;;;;4903634;28;93116;-73
2024/01/05 00:41:02;;;;;;;2.77;1.23;;;1.70;99.90;1.30;99642.00;;;;4914708;28;96409;-73
2024/01/05 00:43:28;;;;;;;1.80;0.83;;;1.60;99.90;1.40;99661.00;;;;4901193;28;92927;-72
2024/01/05 00:45:54;;;;;;;1.33;0.87;;;1.70;99.90;1.40;99653.00;;;;4905383;28;110725;-73
2024/01/05 00:48:20;;;;;;;1.60;1.43;;;1.60;99.90;1.40;99643.00;;;;4900742;28;92769;-72
2024/01/05 00:50:46;;;;;;;1.57;1.10;;;1.60;99.90;1.40;99638.00;;;;4899463;28;122149;-73
2024/01/05 00:53:11;;;;;;;0.70;0.70;;;1.60;99.90;1.40;99635.00;;;;4897607;28;123394;-73
2024/01/05 00:55:37;;;;;;;7.17;1.33;;;1.60;99.90;1.30;99631.00;;;;4898567;28;110396;-71
2024/01/05 00:58:03;;;;;;;1.53;1.23;;;1.60;99.90;1.30;99631.00;;;;4904499;28;108823;-73
2024/01/05 01:00:29;;;;;;;1.27;1.00;;;1.60;99.90;1.40;99635.00;;;;4899572;28;109972;-73
2024/01/05 01:02:55;;;;;;;1.13;0.97;;;2.40;99.90;1.40;99629.00;;;;4902230;28;122432;-73
2024/01/05 01:05:21;;;;;;;1.20;0.87;;;1.60;99.90;1.40;99638.00;;;;4899941;28;110793;-73
2024/01/05 01:07:47;;;;;;;1.40;0.90;;;1.70;99.90;1.50;99644.00;;;;4901504;28;93118;-73
2024/01/05 01:10:13;;;;;;;1.40;1.17;;;1.70;99.90;1.50;99646.00;;;;4898199;28;123121;-73
2024/01/05 01:12:39;;;;;;;2.17;1.20;;;1.80;99.90;1.50;99644.00;;;;4905887;28;92088;-73
2024/01/05 01:15:06;;;;;;;1.73;1.30;;;2.60;99.90;1.50;99651.00;;;;4916683;28;93046;-73
2024/01/05 01:17:32;;;;;;;1.77;1.10;;;1.80;99.90;1.50;99654.00;;;;4902390;28;92989;-73
2024/01/05 01:19:58;;;;;;;1.67;0.80;;;2.70;99.90;1.60;99638.00;;;;4899461;28;112638;-73
2024/01/05 01:22:24;;;;;;;1.07;1.00;;;1.90;99.90;1.60;99641.00;;;;4899291;28;93740;-74
2024/01/05 01:24:49;;;;;;;1.00;0.80;;;1.90;99.90;1.60;99636.00;;;;4902684;28;108465;-73
2024/01/05 01:27:16;;;;;;;1.27;0.90;;;1.90;99.90;1.60;99634.00;;;;4901046;28;108583;-74
2024/01/05 01:29:42;;;;;;;0.80;0.80;;;1.80;99.90;1.60;99627.00;;;;4903740;28;121539;-73
2024/01/05 01:32:09;;;;;;;1.23;0.93;;;1.80;99.90;1.60;99631.00;;;;4903006;28;105584;-74
2024/01/05 01:34:41;;;;;;;0.77;0.77;;;1.80;99.90;1.60;99638.00;;;;4903541;28;98708;-74
2024/01/05 01:37:06;;;;;;;0.50;0.50;;;1.90;99.90;1.50;99629.00;;;;4900973;28;108005;-74
2024/01/05 01:39:32;;;;;;;0.83;0.83;;;2.60;99.90;1.50;99626.00;;;;4900715;28;122609;-74
2024/01/05 01:41:58;;;;;;;0.73;0.73;;;1.70;99.90;1.50;99629.00;;;;4902608;28;121426;-74
2024/01/05 01:44:24;;;;;;;1.03;0.93;;;1.80;99.90;1.50;99629.00;;;;4906130;28;97797;-74
2024/01/05 01:46:52;;;;;;;0.77;0.77;;;1.80;99.90;1.50;99628.00;;;;4911766;28;107992;-73
2024/01/05 01:49:18;;;;;;;2.00;1.17;;;1.80;99.90;1.50;99628.00;;;;4903232;28;117724;-73
2024/01/05 01:51:45;;;;;;;1.93;1.00;;;1.80;99.90;1.50;99619.00;;;;4902425;28;122978;-74
2024/01/05 01:54:10;;;;;;;1.77;1.40;;;1.70;99.90;1.50;99621.00;;;;4905943;28;93062;-74
2024/01/05 01:56:37;;;;;;;1.10;1.00;;;1.70;99.90;1.50;99624.00;;;;4888966;28;107288;-73
2024/01/05 01:59:05;;;;;;;0.90;0.90;;;1.80;99.90;1.50;99626.00;;;;4903212;28;122505;-73
2024/01/05 02:01:30;;;;;;;1.53;1.13;;;2.40;99.90;1.50;99618.00;;;;4897173;28;94623;-73
2024/01/05 02:03:57;;;;;;;1.07;0.80;;;2.50;99.90;1.50;99619.00;;;;4902077;28;93097;-73
2024/01/05 02:06:23;;;;;;;1.77;0.70;;;1.80;99.90;1.60;99621.00;;;;4902429;28;100011;-73
2024/01/05 02:08:50;;;;;;;1.20;0.97;;;1.80;99.90;1.60;99616.00;;;;4898818;28;94615;-72
2024/01/05 02:11:16;;;;;;;1.30;1.20;;;1.80;99.90;1.60;99615.00;;;;4899806;28;94116;-72
2024/01/05 02:13:43;;;;;;;2.10;1.53;;;2.30;99.90;1.70;99618.00;;;;4892572;28;98103;-73
2024/01/05 02:16:08;;;;;;;1.10;0.90;;;2.70;99.90;1.70;99613.00;;;;4904245;28;93192;-72
2024/01/05 02:18:34;;;;;;;1.50;1.40;;;2.00;99.90;1.70;99607.00;;;;4901661;28;112921;-72
2024/01/05 02:21:02;;;;;;;1.90;0.80;;;2.10;99.90;1.70;99598.00;;;;4908185;28;120679;-72
2024/01/05 02:23:30;;;;;;;2.60;1.43;;;2.00;99.90;1.70;99601.00;;;;4901430;28;93068;-72
2024/01/05 02:25:57;;;;;;;1.20;1.10;;;2.00;99.90;1.70;99604.00;;;;4903558;28;92215;-72
2024/01/05 02:28:24;;;;;;;0.97;0.87;;;2.00;99.90;1.70;99594.00;;;;4917541;28;106548;-72
2024/01/05 02:30:53;;;;;;;1.13;1.00;;;2.00;99.90;1.70;99603.00;;;;4901980;28;93982;-73
2024/01/05 02:33:19;;;;;;;1.47;1.37;;;2.00;99.90;1.70;99593.00;;;;4904086;28;93895;-72
2024/01/05 02:35:44;;;;;;;1.20;1.10;;;1.90;99.90;1.70;99589.00;;;;4902541;28;107091;-72
2024/01/05 02:38:10;;;;;;;1.00;0.90;;;1.90;99.90;1.70;99601.00;;;;4901677;28;93706;-73
2024/01/05 02:40:36;;;;;;;1.70;1.33;;;1.90;99.90;1.70;99595.00;;;;4904173;28;121324;-72
2024/01/05 02:43:01;;;;;;;1.70;1.40;;;1.90;99.90;1.70;99590.00;;;;4901482;28;111133;-73
2024/01/05 02:45:27;;;;;;;1.67;1.30;;;2.90;99.90;1.70;99589.00;;;;4901425;28;96056;-72
2024/01/05 02:47:53;;;;;;;1.43;1.10;;;1.90;99.90;1.70;99599.00;;;;4903913;28;119307;-72
2024/01/05 02:50:44;;;;;;;1.50;1.40;;;2.80;99.90;1.60;99593.00;;;;4904097;28;122018;-71
2024/01/05 02:53:09;;;;;;;1.10;0.93;;;2.00;99.90;1.70;99589.00;;;;4898488;28;110011;-71
2024/01/05 02:55:35;;;;;;;1.23;1.13;;;2.00;99.90;1.70;99586.00;;;;4903076;28;108068;-72
2024/01/05 02:58:04;;;;;;;2.80;1.20;;;2.00;99.90;1.70;99582.00;;;;4882585;28;109824;-72
2024/01/05 03:00:29;;;;;;;1.87;1.47;;;2.10;99.90;1.70;99575.00;;;;4892137;28;93305;-71
2024/01/05 03:02:56;;;;;;;2.70;1.30;;;1.90;99.90;1.70;99575.00;;;;4902513;28;110169;-71
2024/01/05 03:05:22;;;;;;;2.23;1.30;;;2.00;99.90;1.70;99582.00;;;;4902181;28;93227;-72
2024/01/05 03:07:47;;;;;;;1.63;1.20;;;2.10;99.90;1.70;99583.00;;;;4901363;28;121916;-72
2024/01/05 03:10:13;;;;;;;1.47;1.10;;;2.10;99.90;1.70;99575.00;;;;4900093;28;122965;-72
2024/01/05 03:12:38;;;;;;;1.30;1.20;;;2.00;99.90;1.70;99570.00;;;;4900566;28;110080;-71
2024/01/05 03:15:05;;;;;;;1.90;1.40;;;2.00;99.90;1.80;99576.00;;;;4901554;28;108781;-71
2024/01/05 03:17:30;;;;;;;1.03;0.93;;;2.10;99.90;1.80;99568.00;;;;4899395;28;113274;-72
2024/01/05 03:19:56;;;;;;;3.10;1.60;;;2.10;99.90;1.80;99571.00;;;;4897563;28;108773;-74
2024/01/05 03:22:22;;;;;;;1.70;1.00;;;2.00;99.90;1.70;99576.00;;;;4900377;28;110684;-72
2024/01/05 03:24:47;;;;;;;2.97;1.33;;;2.10;99.90;1.70;99573.00;;;;4901634;28;93413;-73
2024/01/05 03:27:14;;;;;;;2.23;1.83;;;2.00;99.90;1.70;99567.00;;;;4896102;28;121694;-72
2024/01/05 03:29:41;;;;;;;2.13;1.30;;;2.00;99.90;1.70;99567.00;;;;4902681;28;93702;-73
2024/01/05 03:32:08;;;;;;;1.67;1.10;;;2.00;99.90;1.70;99560.00;;;;4883040;28;93375;-73
2024/01/05 03:34:34;;;;;;;2.23;1.63;;;2.00;99.90;1.70;99547.00;;;;4902613;28;93363;-72
2024/01/05 03:36:59;;;;;;;2.00;1.47;;;2.40;99.90;1.70;99546.00;;;;4906075;28;94706;-72
2024/01/05 03:39:26;;;;;;;2.33;1.37;;;2.00;99.90;1.80;99546.00;;;;4901481;28;92773;-72
2024/01/05 03:41:51;;;;;;;1.63;1.37;;;3.20;99.90;1.80;99547.00;;;;4894162;28;93119;-73
2024/01/05 03:44:20;;;;;;;2.37;1.23;;;2.00;99.90;1.80;99533.00;;;;4902322;28;92919;-73
2024/01/05 03:46:50;;;;;;;2.23;1.60;;;2.10;99.90;1.80;99538.00;;;;4900169;28;94274;-73
2024/01/05 03:49:16;;;;;;;2.20;1.23;;;2.60;99.90;1.80;99535.00;;;;4914307;28;93381;-73
2024/01/05 03:51:43;;;;;;;1.70;1.30;;;2.10;99.90;1.80;99539.00;;;;4899355;28;93260;-72
2024/01/05 03:54:09;;;;;;;2.00;1.47;;;2.10;99.90;1.80;99532.00;;;;4899640;28;93838;-72
2024/01/05 03:56:40;;;;;;;2.93;1.43;;;2.10;99.90;1.80;99525.00;;;;4898964;28;93264;-72
2024/01/05 03:59:05;;;;;;;2.97;1.67;;;2.10;99.90;1.80;99525.00;;;;4921132;28;95014;-72
2024/01/05 04:01:31;;;;;;;2.10;1.60;;;2.10;99.90;1.90;99532.00;;;;4902536;28;111012;-72
2024/01/05 04:03:57;;;;;;;1.90;1.30;;;2.20;99.90;1.90;99522.00;;;;4901482;28;107927;-72
2024/01/05 04:06:23;;;;;;;2.10;1.57;;;2.40;99.90;1.90;99518.00;;;;4902828;28;93247;-72
2024/01/05 04:08:48;;;;;;;2.70;1.57;;;2.10;99.90;1.90;99503.00;;;;4897454;28;121483;-72
2024/01/05 04:11:20;;;;;;;2.87;1.53;;;2.20;99.90;1.90;99506.00;;;;4903142;28;110824;-71
2024/01/05 04:13:47;;;;;;;3.33;1.60;;;2.10;99.90;1.90;99510.00;;;;4902564;28;92866;-70
2024/01/05 04:16:13;;;;;;;1.60;1.23;;;2.10;99.90;1.90;99497.00;;;;4899869;28;93326;-71
2024/01/05 04:18:39;;;;;;;2.93;1.67;;;2.10;99.90;1.90;99483.00;;;;4898887;28;93737;-71
2024/01/05 04:21:05;;;;;;;2.90;1.37;;;2.10;99.90;1.90;99484.00;;;;4901776;28;92853;-71
2024/01/05 04:23:31;;;;;;;1.83;1.23;;;2.60;99.90;1.80;99490.00;;;;4898953;28;108341;-71
2024/01/05 04:25:57;;;;;;;2.03;1.27;;;2.40;99.90;1.90;99489.00;;;;4885862;28;95850;-71
2024/01/05 04:28:22;;;;;;;1.57;1.47;;;2.20;99.90;1.90;99469.00;;;;4899855;28;121380;-70
2024/01/05 04:30:48;;;;;;;1.97;1.50;;;2.10;99.90;1.80;99469.00;;;;4900174;28;110093;-71
2024/01/05 04:33:14;;;;;;;2.37;1.53;;;2.20;99.90;1.90;99474.00;;;;4902254;28;93044;-71
2024/01/05 04:35:39;;;;;;;2.80;2.23;;;2.20;99.90;1.90;99464.00;;;;4898268;28;124131;-71
2024/01/05 04:38:05;;;;;;;2.37;1.23;;;2.20;99.90;1.90;99463.00;;;;4900150;28;123043;-72
2024/01/05 04:40:31;;;;;;;2.87;2.53;;;2.20;99.90;1.90;99469.00;;;;4898386;28;92963;-71
2024/01/05 04:42:56;;;;;;;2.73;1.40;;;2.20;99.90;1.90;99473.00;;;;4902530;28;107660;-71
2024/01/05 04:45:22;;;;;;;2.57;2.37;;;2.20;99.90;2.00;99454.00;;;;4899588;28;121896;-71
2024/01/05 04:47:48;;;;;;;3.53;1.63;;;2.20;99.90;2.00;99465.00;;;;4901660;28;92988;-73
2024/01/05 04:50:13;;;;;;;2.80;1.97;;;2.30;99.90;2.00;99455.00;;;;4897351;28;110093;-72
2024/01/05 04:52:39;;;;;;;3.90;2.13;;;2.20;99.90;2.00;99452.00;;;;4904813;28;107815;-72
2024/01/05 04:55:05;;;;;;;2.87;2.00;;;2.30;99.90;2.00;99438.00;;;;4888914;28;94617;-71
2024/01/05 04:57:31;;;;;;;2.43;2.23;;;2.20;99.90;2.00;99435.00;;;;4896170;28;115475;-72
2024/01/05 04:59:56;;;;;;;2.83;2.30;;;2.30;99.90;2.00;99432.00;;;;4901554;28;109574;-72
2024/01/05 05:02:23;;;;;;;3.60;2.03;;;2.30;99.90;2.00;99434.00;;;;4899750;28;109427;-72
2024/01/05 05:04:49;;;;;;;2.40;2.17;;;2.30;99.90;2.00;99433.00;;;;4899693;28;93580;-72
2024/01/05 05:07:14;;;;;;;3.60;2.47;;;2.30;99.90;2.00;99436.00;;;;4900101;28;94855;-72
2024/01/05 05:09:40;;;;;;;3.83;2.33;;;2.30;99.90;2.00;99429.00;;;;4898784;28;110522;-72
2024/01/05 05:12:06;;;;;;;4.33;2.57;;;2.20;99.90;2.00;99423.00;;;;4898858;28;109342;-72
2024/01/05 05:14:32;;;;;;;3.33;2.50;;;2.20;99.90;2.00;99430.00;;;;4896686;28;110319;-72
2024/01/05 05:16:57;;;;;;;4.10;2.20;;;2.30;99.90;2.00;99428.00;;;;4898999;28;122139;-72
2024/01/05 05:19:23;;;;;;;3.17;2.90;;;2.50;99.90;2.00;99424.00;;;;4901536;28;92758;-72
2024/01/05 05:21:49;;;;;;;4.20;2.53;;;2.20;99.90;2.00;99412.00;;;;4899305;28;107411;-72
2024/01/05 05:24:14;;;;;;;5.20;2.47;;;2.50;99.90;2.00;99403.00;;;;4896869;28;126469;-72
2024/01/05 05:26:41;;;;;;;4.73;2.57;;;2.30;99.90;2.00;99404.00;;;;4897499;28;114805;-73
2024/01/05 05:29:07;;;;;;;4.27;2.23;;;2.20;99.90;1.90;99414.00;;;;4904071;28;93277;-72
2024/01/05 05:31:32;;;;;;;2.73;2.30;;;2.30;99.90;1.90;99419.00;;;;4899541;28;97018;-72
2024/01/05 05:33:58;;;;;;;2.93;2.73;;;2.20;99.90;1.90;99435.00;;;;4898684;28;122546;-72
2024/01/05 05:36:24;;;;;;;3.00;2.70;;;3.00;99.90;1.90;99430.00;;;;4901450;28;123283;-72
2024/01/05 05:38:50;;;;;;;4.73;4.33;;;2.20;99.90;2.00;99452.00;;;;4893968;28;95798;-72
2024/01/05 05:41:15;;;;;;;4.43;3.10;;;2.20;99.90;2.00;99450.00;;;;4898697;28;93385;-72
2024/01/05 05:43:45;;;;;;;3.27;2.97;;;2.70;99.90;2.00;99457.00;;;;4898352;28;94474;-71
2024/01/05 05:46:10;;;;;;;4.57;3.07;;;2.20;99.90;2.00;99457.00;;;;4900416;28;112498;-72
2024/01/05 05:48:36;;;;;;;3.27;2.50;;;2.30;99.90;2.00;99469.00;;;;4905694;28;95875;-72
2024/01/05 05:51:04;;;;;;;2.77;2.30;;;2.20;99.90;2.00;99464.00;;;;4900989;28;109437;-71
2024/01/05 05:53:30;;;;;;;1.97;1.73;;;2.20;99.90;2.10;99467.00;;;;4901082;28;94306;-72
2024/01/05 05:55:55;;;;;;;3.30;2.30;;;2.70;99.90;2.10;99464.00;;;;4907735;28;113807;-71
2024/01/05 05:58:24;;;;;;;3.70;2.30;;;2.40;99.90;2.10;99446.00;;;;4907676;28;110969;-72
2024/01/05 06:00:49;;;;;;;5.13;2.47;;;2.30;99.90;2.10;99450.00;;;;4900275;28;92949;-72
2024/01/05 06:03:15;;;;;;;5.10;3.00;;;2.40;99.90;2.10;99454.00;;;;4902591;28;99294;-71
2024/01/05 06:05:41;;;;;;;8.67;5.10;;;2.40;99.90;2.10;99443.00;;;;4905334;28;94086;-70
2024/01/05 06:08:06;;;;;;;16.83;11.90;;;2.80;99.90;2.10;99445.00;;;;4904681;28;93170;-71
2024/01/05 06:10:32;;;;;;;25.57;17.67;;;2.20;99.90;2.00;99444.00;;;;4899964;28;108878;-71
2024/01/05 06:12:58;;;;;;;10.67;8.50;;;2.30;99.90;2.00;99458.00;;;;4882423;28;94563;-71
2024/01/05 06:15:23;;;;;;;5.50;3.63;;;2.30;99.90;2.00;99454.00;;;;4899530;28;123388;-71
2024/01/05 06:17:49;;;;;;;3.53;2.93;;;2.30;99.90;2.00;99459.00;;;;4902262;28;110463;-72
2024/01/05 06:20:15;;;;;;;3.40;2.40;;;2.30;99.90;2.10;99452.00;;;;4901760;28;93633;-72
2024/01/05 06:22:53;;;;;;;3.53;2.50;;;2.30;99.90;2.10;99465.00;;;;4903794;28;93091;-71
2024/01/05 06:25:18;;;;;;;4.33;2.80;;;3.30;99.90;2.10;99452.00;;;;4903309;28;93016;-72
2024/01/05 06:27:44;;;;;;;3.27;3.00;;;2.40;99.90;2.10;99454.00;;;;4901819;28;109544;-72
2024/01/05 06:30:10;;;;;;;3.37;2.13;;;2.30;99.90;2.10;99454.00;;;;4903925;28;107157;-71
2024/01/05 06:32:36;;;;;;;7.33;2.70;;;2.30;99.90;2.10;99450.00;;;;4903147;28;104982;-72
2024/01/05 06:35:03;;;;;;;3.53;2.37;;;3.20;99.90;2.10;99455.00;;;;4905164;28;93828;-72
2024/01/05 06:37:29;;;;;;;3.33;2.27;;;2.40;99.90;2.10;99445.00;;;;4906242;28;93941;-71
2024/01/05 06:39:55;;;;;;;3.23;2.37;;;2.40;99.90;2.10;99458.00;;;;4905617;28;93208;-72
2024/01/05 06:42:22;;;;;;;5.13;2.83;;;2.40;99.90;2.10;99440.00;;;;4904680;28;94227;-72
2024/01/05 06:44:47;;;;;;;4.77;3.07;;;2.30;99.90;2.10;99443.00;;;;4901203;28;93229;-72
2024/01/05 06:47:13;;;;;;;3.37;2.67;;;2.30;99.90;2.10;99451.00;;;;4895926;28;102567;-71
2024/01/05 06:49:39;;;;;;;4.77;3.10;;;2.40;99.90;2.10;99448.00;;;;4901369;28;109431;-71
2024/01/05 06:52:05;;;;;;;4.63;3.47;;;2.20;99.90;2.10;99444.00;;;;4900632;28;113438;-71
2024/01/05 06:54:30;;;;;;;8.10;5.77;;;2.40;99.90;2.10;99439.00;;;;4901831;28;114259;-71
2024/01/05 06:56:56;;;;;;;11.07;9.30;;;2.20;99.90;2.00;99435.00;;;;4906571;28;92889;-72
2024/01/05 06:59:24;;;;;;;5.83;4.97;;;2.30;99.90;2.00;99444.00;;;;4898846;28;92975;-71
2024/01/05 07:01:50;;;;;;;3.50;2.40;;;2.30;99.90;2.00;99441.00;;;;4897754;28;94386;-71
2024/01/05 07:04:15;;;;;;;3.73;2.73;;;2.90;99.90;2.00;99442.00;;;;4882970;28;117589;-71
2024/01/05 07:06:41;;;;;;;4.03;2.87;;;2.30;99.90;2.00;99440.00;;;;4888919;28;110116;-71
2024/01/05 07:09:07;;;;;;;4.33;3.33;;;2.30;99.90;2.00;99440.00;;;;4899637;28;93202;-72
2024/01/05 07:11:33;;;;;;;6.33;3.47;;;2.20;99.90;2.00;99434.00;;;;4894260;28;107947;-72
2024/01/05 07:14:01;;;;;;;4.80;3.37;;;2.30;99.90;2.10;99428.00;;;;4894864;28;119312;-73
2024/01/05 07:16:27;;;;;;;3.10;2.80;;;2.20;99.90;2.10;99426.00;;;;4900888;28;110733;-71
2024/01/05 07:18:54;;;;;;;5.50;3.33;;;2.30;99.90;2.10;99412.00;;;;4907047;28;108104;-71
2024/01/05 07:21:19;;;;;;;4.57;3.10;;;2.30;99.90;2.10;99424.00;;;;4902110;28;94118;-71
2024/01/05 07:23:45;;;;;;;3.43;2.43;;;2.30;99.90;2.20;99420.00;;;;4897214;28;122492;-71
2024/01/05 07:26:11;;;;;;;4.43;3.87;;;2.40;99.90;2.20;99418.00;;;;4897615;28;94521;-72
2024/01/05 07:28:37;;;;;;;4.70;3.53;;;2.40;99.90;2.20;99414.00;;;;4897726;28;92859;-71
2024/01/05 07:31:05;;;;;;;4.67;3.40;;;2.50;99.90;2.20;99419.00;;;;4901246;28;92976;-71
2024/01/05 07:33:31;;;;;;;5.40;4.37;;;2.50;99.90;2.20;99409.00;;;;4905299;28;94004;-71
2024/01/05 07:36:00;;;;;;;7.87;4.10;;;3.40;99.90;2.30;99420.00;;;;4901679;28;93135;-71
2024/01/05 07:38:25;;;;;;;6.93;4.03;;;2.50;99.90;2.30;99426.00;;;;4913074;28;99953;-71
2024/01/05 07:40:51;;;;;;;3.97;2.83;;;2.50;99.90;2.30;99416.00;;;;4896579;28;122316;-71
2024/01/05 07:43:17;;;;;;;4.00;3.00;;;2.60;99.90;2.40;99414.00;;;;4903555;28;92843;-71
2024/01/05 07:45:42;;;;;;;4.47;3.33;;;2.60;99.90;2.40;99414.00;;;;4899337;28;109458;-71
2024/01/05 07:48:08;;;;;;;3.87;3.17;;;2.40;99.90;2.40;99427.00;;;;4896200;28;93006;-71
2024/01/05 07:50:34;;;;;;;4.83;3.33;;;3.30;99.90;2.50;99432.00;;;;4896965;28;124142;-72
2024/01/05 07:53:00;;;;;;;5.63;4.20;;;2.70;99.90;2.50;99425.00;;;;4901400;28;93467;-72
2024/01/05 07:55:29;;;;;;;6.53;3.10;;;2.70;99.90;2.50;99421.00;;;;4896972;28;110422;-72
2024/01/05 07:57:54;;;;;;;6.07;3.60;;;2.70;99.90;2.60;99418.00;;;;4899649;28;92900;-72
2024/01/05 08:00:21;;;;;;;4.87;3.70;;;2.80;99.90;2.60;99413.00;;;;4899513;28;95508;-72
2024/01/05 08:02:49;;;;;;;7.83;4.33;;;2.80;99.90;2.60;99402.00;;;;4895339;28;123242;-73
2024/01/05 08:05:14;;;;;;;6.00;5.00;;;2.30;99.90;2.70;99405.00;;;;4896639;28;110632;-73
2024/01/05 08:07:43;;;;;;;5.77;4.10;;;2.90;99.90;2.70;99399.00;;;;4890155;28;108920;-72
2024/01/05 08:10:09;;;;;;;5.13;3.37;;;2.90;99.90;2.70;99404.00;;;;4896494;28;116043;-72
2024/01/05 08:12:35;;;;;;;7.27;3.63;;;3.00;99.90;2.70;99398.00;;;;4896066;28;93907;-71
2024/01/05 08:15:01;;;;;;;7.97;4.30;;;2.90;99.90;2.70;99397.00;;;;4893619;28;110350;-72
2024/01/05 08:17:26;;;;;;;6.33;4.03;;;2.80;99.90;2.70;99400.00;;;;4897910;28;107755;-72
2024/01/05 08:19:52;;;;;;;6.37;3.70;;;2.90;99.90;2.70;99396.00;;;;4897908;28;123325;-72
2024/01/05 08:22:18;;;;;;;10.00;3.90;;;3.00;99.90;2.70;99388.00;;;;4894034;28;122899;-72
2024/01/05 08:24:44;;;;;;;8.50;5.97;;;2.90;99.90;2.80;99390.00;;;;4896791;28;110925;-72
2024/01/05 08:27:10;;;;;;;25.87;10.33;;;2.90;99.90;2.80;99397.00;;;;4898233;28;92791;-72
2024/01/05 08:29:35;;;;;;;12.40;5.80;;;3.00;99.90;2.80;99383.00;;;;4898622;28;93997;-71
2024/01/05 08:32:02;;;;;;;5.77;4.40;;;4.00;99.90;2.90;99380.00;;;;4895553;28;121941;-71
2024/01/05 08:34:29;;;;;;;6.33;3.83;;;3.80;99.90;2.90;99376.00;;;;4906736;28;92997;-72
2024/01/05 08:36:54;;;;;;;4.23;3.70;;;3.10;99.90;3.00;99371.00;;;;4898350;28;93242;-71
2024/01/05 08:39:20;;;;;;;5.20;3.23;;;3.30;99.90;3.00;99364.00;;;;4897220;28;123554;-71
2024/01/05 08:41:46;;;;;;;4.47;3.30;;;3.30;99.90;3.00;99361.00;;;;4897000;28;124736;-71
2024/01/05 08:44:12;;;;;;;4.33;3.47;;;4.00;99.90;3.10;99355.00;;;;4902344;28;92937;-71
2024/01/05 08:46:37;;;;;;;8.07;4.57;;;3.20;99.90;3.10;99354.00;;;;4903701;28;93285;-71
2024/01/05 08:49:04;;;;;;;4.63;3.33;;;3.20;99.90;3.10;99350.00;;;;4898976;28;113356;-71
2024/01/05 08:51:29;;;;;;;5.47;4.13;;;3.30;99.90;3.20;99346.00;;;;4899934;28;93224;-70
2024/01/05 08:53:57;;;;;;;9.17;3.97;;;3.40;99.90;3.20;99343.00;;;;4893251;28;109370;-70
2024/01/05 08:56:23;;;;;;;6.40;3.83;;;3.40;99.90;3.20;99356.00;;;;4895526;28;92492;-70
2024/01/05 08:58:49;;;;;;;6.60;3.10;;;3.50;99.90;3.30;99373.00;;;;4897185;28;121129;-70
2024/01/05 09:01:14;;;;;;;5.63;3.50;;;3.40;99.90;3.40;99366.00;;;;4892906;28;122791;-71
2024/01/05 09:03:40;;;;;;;2.93;2.67;;;3.50;99.90;3.50;99358.00;;;;4895804;28;109359;-70
2024/01/05 09:06:06;;;;;;;7.17;4.30;;;3.40;99.90;3.60;99368.00;;;;4895798;28;92903;-70
2024/01/05 09:08:32;;;;;;;3.90;3.13;;;3.70;99.90;3.70;99368.00;;;;4896512;28;94399;-70
2024/01/05 09:10:58;;;;;;;5.70;3.10;;;3.80;99.90;3.70;99370.00;;;;4896883;28;122650;-70
2024/01/05 09:13:23;;;;;;;10.03;2.97;;;3.90;99.90;3.80;99363.00;;;;4894447;28;93004;-69
2024/01/05 09:15:49;;;;;;;5.07;4.20;;;4.00;99.90;3.90;99379.00;;;;4898675;28;93031;-69
2024/01/05 09:18:14;;;;;;;6.57;2.90;;;4.80;99.90;3.90;99371.00;;;;4892993;28;93202;-69
2024/01/05 09:20:40;;;;;;;3.40;3.07;;;4.20;99.90;4.00;99376.00;;;;4895013;28;122350;-70
2024/01/05 09:23:06;;;;;;;6.83;3.20;;;4.10;99.90;4.00;99367.00;;;;4899220;28;93038;-69
2024/01/05 09:25:32;;;;;;;4.87;3.47;;;4.20;99.90;4.10;99364.00;;;;4897983;28;110305;-69
2024/01/05 09:28:03;;;;;;;5.57;3.47;;;4.30;99.90;4.20;99368.00;;;;4897731;28;95017;-70
2024/01/05 09:30:28;;;;;;;5.63;2.80;;;4.30;99.90;4.20;99361.00;;;;4914766;28;96216;-70
2024/01/05 09:32:57;;;;;;;4.63;3.40;;;4.40;99.90;4.30;99359.00;;;;4897425;28;92855;-69
2024/01/05 09:35:22;;;;;;;3.60;2.93;;;4.40;99.90;4.30;99361.00;;;;4900150;28;92784;-69
2024/01/05 09:37:50;;;;;;;12.07;6.37;;;4.50;99.90;4.40;99359.00;;;;4899121;28;123148;-69
2024/01/05 09:40:15;;;;;;;122.30;71.43;;;4.50;99.90;4.50;99370.00;;;;4897998;28;93479;-68
2024/01/05 09:42:53;;;;;;;11.10;7.33;;;4.60;99.90;4.50;99367.00;;;;4898143;28;110547;-69
2024/01/05 09:45:21;;;;;;;11.43;6.20;;;4.70;99.90;4.70;99367.00;;;;4903442;28;92284;-69
2024/01/05 09:47:49;;;;;;;67.73;34.43;;;4.70;99.90;4.70;99371.00;;;;4899891;28;94368;-69
2024/01/05 09:50:18;;;;;;;15.37;8.77;;;4.90;99.90;4.80;99353.00;;;;4897900;28;115221;-69
2024/01/05 09:52:45;;;;;;;4.70;4.13;;;4.90;99.90;4.80;99346.00;;;;4901458;28;93983;-69
2024/01/05 09:55:11;;;;;;;4.17;3.67;;;5.00;99.90;4.80;99347.00;;;;4899664;28;92840;-69
2024/01/05 09:57:40;;;;;;;7.63;5.90;;;5.00;99.90;4.90;99355.00;;;;4899826;28;93333;-68
2024/01/05 10:00:08;;;;;;;7.13;5.33;;;5.00;99.90;5.00;99361.00;;;;4901230;28;92833;-69
2024/01/05 10:02:43;;;;;;;9.57;7.53;;;5.10;99.90;5.00;99352.00;;;;4900588;28;94209;-69
2024/01/05 10:05:10;;;;;;;6.93;3.67;;;6.00;99.90;5.10;99356.00;;;;4898452;28;93005;-69
2024/01/05 10:07:45;;;;;;;4.30;3.40;;;5.50;99.90;5.10;99351.00;;;;4900616;28;93279;-68
2024/01/05 10:10:12;;;;;;;4.83;3.40;;;5.80;99.90;5.20;99357.00;;;;4900722;28;93345;-68
2024/01/05 10:12:40;;;;;;;10.53;8.33;;;5.30;99.90;5.20;99357.00;;;;4900879;28;92990;-69
2024/01/05 10:15:14;;;;;;;18.47;12.67;;;5.30;99.90;5.30;99339.00;;;;4901843;28;92931;-68
2024/01/05 10:17:40;;;;;;;20.47;15.20;;;5.40;99.90;5.40;99340.00;;;;4901379;28;124259;-69
2024/01/05 10:20:16;;;;;;;28.80;24.43;;;5.90;99.90;5.50;99361.00;;;;4900102;28;93393;-69
2024/01/05 10:22:46;;;;;;;9.27;5.37;;;5.90;99.90;5.50;99340.00;;;;4898243;28;93274;-70
2024/01/05 10:25:16;;;;;;;11.60;8.10;;;5.60;99.90;5.60;99351.00;;;;4908181;28;93025;-69
2024/01/05 10:27:43;;;;;;;9.57;6.03;;;6.40;99.90;5.60;99353.00;;;;4903544;28;93011;-69
2024/01/05 10:30:10;;;;;;;38.27;29.00;;;5.70;99.90;5.70;99357.00;;;;4913880;28;93045;-69
2024/01/05 10:32:36;;;;;;;8.10;5.83;;;5.80;99.90;5.70;99340.00;;;;4899643;28;93863;-68
2024/01/05 10:35:03;;;;;;;20.67;14.63;;;6.60;99.90;5.70;99342.00;;;;4900488;28;93656;-69
2024/01/05 10:37:29;;;;;;;17.03;9.93;;;5.90;99.90;5.80;99348.00;;;;4897303;28;93183;-68
2024/01/05 10:39:56;;;;;;;20.70;16.33;;;5.90;99.90;5.80;99343.00;;;;4911130;28;92978;-68
2024/01/05 10:42:29;;;;;;;11.07;8.70;;;6.60;99.90;5.80;99355.00;;;;4898752;28;93892;-70
2024/01/05 10:44:57;;;;;;;8.97;8.03;;;5.90;99.90;5.80;99344.00;;;;4902919;28;93247;-70
2024/01/05 10:47:31;;;;;;;6.50;4.27;;;5.90;99.90;5.80;99338.00;;;;4900815;28;93316;-71
2024/01/05 10:49:57;;;;;;;7.50;6.77;;;5.90;99.90;5.80;99333.00;;;;4906323;28;93094;-69
2024/01/05 10:52:28;;;;;;;9.03;6.10;;;5.90;99.90;5.80;99324.00;;;;4897685;28;93189;-70
2024/01/05 10:54:54;;;;;;;6.97;5.87;;;5.90;99.90;5.80;99325.00;;;;4901889;28;96201;-70
2024/01/05 10:57:21;;;;;;;6.13;4.17;;;5.80;99.90;5.80;99320.00;;;;4897290;28;93100;-69
2024/01/05 10:59:54;;;;;;;8.97;4.27;;;6.60;99.90;5.90;99320.00;;;;4900841;28;93028;-69
2024/01/05 11:02:25;;;;;;;6.97;3.13;;;6.00;99.90;5.90;99309.00;;;;4900518;28;93187;-69